sensor_id;sensor_type;location;lat;lon;timestamp;P1;durP1;ratioP1;P2;durP2;ratioP2
15883;SDS011;8040;50.254;10.960;2023-08-17T00:01:38;426.55;;;245.13;;
15883;SDS011;8040;50.254;10.960;2023-08-17T00:04:05;420.63;;;241.63;;
15883;SDS011;8040;50.254;10.960;2023-08-17T00:06:30;432.17;;;246.88;;
15883;SDS011;8040;50.254;10.960;2023-08-17T00:08:56;421.50;;;241.23;;
15883;SDS011;8040;50.254;10.960;2023-08-17T00:11:21;428.50;;;241.77;;
15883;SDS011;8040;50.254;10.960;2023-08-17T00:13:47;433.30;;;244.27;;
15883;SDS011;8040;50.254;10.960;2023-08-17T00:16:12;421.63;;;242.80;;
15883;SDS011;8040;50.254;10.960;2023-08-17T00:18:38;422.83;;;236.82;;
15883;SDS011;8040;50.254;10.960;2023-08-17T00:21:03;420.77;;;231.48;;
15883;SDS011;8040;50.254;10.960;2023-08-17T00:23:29;417.47;;;238.60;;
15883;SDS011;8040;50.254;10.960;2023-08-17T00:25:54;415.07;;;228.23;;
15883;SDS011;8040;50.254;10.960;2023-08-17T00:28:20;421.25;;;234.52;;
15883;SDS011;8040;50.254;10.960;2023-08-17T00:30:45;424.90;;;233.57;;
15883;SDS011;8040;50.254;10.960;2023-08-17T00:33:10;424.13;;;231.70;;
15883;SDS011;8040;50.254;10.960;2023-08-17T00:35:36;418.67;;;231.38;;
15883;SDS011;8040;50.254;10.960;2023-08-17T00:38:01;419.83;;;231.30;;
15883;SDS011;8040;50.254;10.960;2023-08-17T00:40:26;420.33;;;228.63;;
15883;SDS011;8040;50.254;10.960;2023-08-17T00:42:52;416.13;;;225.82;;
15883;SDS011;8040;50.254;10.960;2023-08-17T00:45:17;426.57;;;228.77;;
15883;SDS011;8040;50.254;10.960;2023-08-17T00:50:30;419.45;;;231.98;;
15883;SDS011;8040;50.254;10.960;2023-08-17T00:52:56;420.13;;;231.02;;
15883;SDS011;8040;50.254;10.960;2023-08-17T00:55:22;419.52;;;223.43;;
15883;SDS011;8040;50.254;10.960;2023-08-17T00:57:49;415.00;;;227.88;;
15883;SDS011;8040;50.254;10.960;2023-08-17T01:00:16;425.60;;;232.88;;
15883;SDS011;8040;50.254;10.960;2023-08-17T01:02:42;419.50;;;228.50;;
15883;SDS011;8040;50.254;10.960;2023-08-17T01:05:08;427.70;;;238.85;;
15883;SDS011;8040;50.254;10.960;2023-08-17T01:07:34;417.88;;;230.13;;
15883;SDS011;8040;50.254;10.960;2023-08-17T01:09:59;433.63;;;239.37;;
15883;SDS011;8040;50.254;10.960;2023-08-17T01:12:29;425.25;;;228.00;;
15883;SDS011;8040;50.254;10.960;2023-08-17T01:20:40;423.98;;;226.90;;
15883;SDS011;8040;50.254;10.960;2023-08-17T01:23:06;420.58;;;223.60;;
15883;SDS011;8040;50.254;10.960;2023-08-17T01:25:32;423.98;;;228.93;;
15883;SDS011;8040;50.254;10.960;2023-08-17T01:28:01;423.50;;;225.10;;
15883;SDS011;8040;50.254;10.960;2023-08-17T01:30:30;437.15;;;234.52;;
15883;SDS011;8040;50.254;10.960;2023-08-17T01:33:37;424.77;;;227.40;;
15883;SDS011;8040;50.254;10.960;2023-08-17T01:36:30;422.10;;;233.87;;
15883;SDS011;8040;50.254;10.960;2023-08-17T01:39:02;417.38;;;223.68;;
15883;SDS011;8040;50.254;10.960;2023-08-17T01:41:29;422.67;;;229.63;;
15883;SDS011;8040;50.254;10.960;2023-08-17T01:43:56;413.25;;;219.15;;
15883;SDS011;8040;50.254;10.960;2023-08-17T01:46:23;418.70;;;220.30;;
15883;SDS011;8040;50.254;10.960;2023-08-17T01:48:50;413.48;;;217.38;;
15883;SDS011;8040;50.254;10.960;2023-08-17T01:51:20;417.00;;;221.50;;
15883;SDS011;8040;50.254;10.960;2023-08-17T01:53:45;416.87;;;218.93;;
15883;SDS011;8040;50.254;10.960;2023-08-17T01:56:11;415.25;;;217.98;;
15883;SDS011;8040;50.254;10.960;2023-08-17T01:58:36;414.80;;;219.37;;
15883;SDS011;8040;50.254;10.960;2023-08-17T02:01:02;421.67;;;222.17;;
15883;SDS011;8040;50.254;10.960;2023-08-17T02:03:27;423.02;;;219.13;;
15883;SDS011;8040;50.254;10.960;2023-08-17T02:05:55;422.15;;;220.73;;
15883;SDS011;8040;50.254;10.960;2023-08-17T02:08:21;419.23;;;220.47;;
15883;SDS011;8040;50.254;10.960;2023-08-17T02:10:47;410.33;;;218.17;;
15883;SDS011;8040;50.254;10.960;2023-08-17T02:13:14;412.83;;;218.93;;
15883;SDS011;8040;50.254;10.960;2023-08-17T02:15:40;416.25;;;214.63;;
15883;SDS011;8040;50.254;10.960;2023-08-17T02:18:05;418.42;;;218.85;;
15883;SDS011;8040;50.254;10.960;2023-08-17T02:20:31;417.00;;;209.23;;
15883;SDS011;8040;50.254;10.960;2023-08-17T02:22:56;422.93;;;218.77;;
15883;SDS011;8040;50.254;10.960;2023-08-17T02:25:22;417.20;;;214.00;;
15883;SDS011;8040;50.254;10.960;2023-08-17T02:27:47;408.20;;;209.40;;
15883;SDS011;8040;50.254;10.960;2023-08-17T02:30:13;427.33;;;218.48;;
15883;SDS011;8040;50.254;10.960;2023-08-17T02:32:38;416.67;;;219.25;;
15883;SDS011;8040;50.254;10.960;2023-08-17T02:35:10;416.43;;;219.03;;
15883;SDS011;8040;50.254;10.960;2023-08-17T02:37:35;410.05;;;210.95;;
15883;SDS011;8040;50.254;10.960;2023-08-17T02:40:01;413.15;;;210.02;;
15883;SDS011;8040;50.254;10.960;2023-08-17T02:42:26;410.60;;;213.60;;
15883;SDS011;8040;50.254;10.960;2023-08-17T02:44:52;414.67;;;213.87;;
15883;SDS011;8040;50.254;10.960;2023-08-17T02:47:17;411.07;;;208.53;;
15883;SDS011;8040;50.254;10.960;2023-08-17T02:49:42;409.90;;;208.93;;
15883;SDS011;8040;50.254;10.960;2023-08-17T02:52:08;407.38;;;200.57;;
15883;SDS011;8040;50.254;10.960;2023-08-17T02:54:36;415.70;;;214.68;;
15883;SDS011;8040;50.254;10.960;2023-08-17T02:57:03;426.15;;;218.13;;
15883;SDS011;8040;50.254;10.960;2023-08-17T02:59:28;412.83;;;211.32;;
15883;SDS011;8040;50.254;10.960;2023-08-17T03:01:54;428.60;;;217.97;;
15883;SDS011;8040;50.254;10.960;2023-08-17T03:04:19;423.33;;;206.87;;
15883;SDS011;8040;50.254;10.960;2023-08-17T03:06:45;421.33;;;217.77;;
15883;SDS011;8040;50.254;10.960;2023-08-17T03:09:10;424.57;;;216.47;;
15883;SDS011;8040;50.254;10.960;2023-08-17T03:11:36;411.43;;;206.57;;
15883;SDS011;8040;50.254;10.960;2023-08-17T03:14:01;415.80;;;210.13;;
15883;SDS011;8040;50.254;10.960;2023-08-17T03:16:27;411.77;;;208.10;;
15883;SDS011;8040;50.254;10.960;2023-08-17T03:18:58;412.60;;;204.93;;
15883;SDS011;8040;50.254;10.960;2023-08-17T03:21:23;409.23;;;204.75;;
15883;SDS011;8040;50.254;10.960;2023-08-17T03:23:49;415.70;;;210.17;;
15883;SDS011;8040;50.254;10.960;2023-08-17T03:26:15;410.90;;;209.17;;
15883;SDS011;8040;50.254;10.960;2023-08-17T03:28:40;415.75;;;204.20;;
15883;SDS011;8040;50.254;10.960;2023-08-17T03:31:09;422.10;;;207.98;;
15883;SDS011;8040;50.254;10.960;2023-08-17T03:33:37;411.33;;;204.35;;
15883;SDS011;8040;50.254;10.960;2023-08-17T03:36:03;408.65;;;205.27;;
15883;SDS011;8040;50.254;10.960;2023-08-17T03:38:28;422.15;;;210.32;;
15883;SDS011;8040;50.254;10.960;2023-08-17T03:40:57;408.47;;;211.10;;
15883;SDS011;8040;50.254;10.960;2023-08-17T03:43:22;410.23;;;213.13;;
15883;SDS011;8040;50.254;10.960;2023-08-17T03:45:48;411.67;;;208.73;;
15883;SDS011;8040;50.254;10.960;2023-08-17T03:48:13;420.42;;;212.30;;
15883;SDS011;8040;50.254;10.960;2023-08-17T03:50:41;420.02;;;218.90;;
15883;SDS011;8040;50.254;10.960;2023-08-17T03:53:06;412.57;;;210.17;;
15883;SDS011;8040;50.254;10.960;2023-08-17T03:55:31;418.23;;;217.03;;
15883;SDS011;8040;50.254;10.960;2023-08-17T03:57:57;417.60;;;220.83;;
15883;SDS011;8040;50.254;10.960;2023-08-17T04:00:22;441.20;;;229.00;;
15883;SDS011;8040;50.254;10.960;2023-08-17T04:02:48;430.73;;;220.73;;
15883;SDS011;8040;50.254;10.960;2023-08-17T04:05:13;420.52;;;216.27;;
15883;SDS011;8040;50.254;10.960;2023-08-17T04:07:39;414.83;;;215.60;;
15883;SDS011;8040;50.254;10.960;2023-08-17T04:10:07;412.43;;;209.70;;
15883;SDS011;8040;50.254;10.960;2023-08-17T04:12:33;417.77;;;212.73;;
15883;SDS011;8040;50.254;10.960;2023-08-17T04:14:59;416.27;;;212.13;;
15883;SDS011;8040;50.254;10.960;2023-08-17T04:17:24;416.77;;;213.00;;
15883;SDS011;8040;50.254;10.960;2023-08-17T04:19:50;420.33;;;217.27;;
15883;SDS011;8040;50.254;10.960;2023-08-17T04:22:15;416.70;;;212.77;;
15883;SDS011;8040;50.254;10.960;2023-08-17T04:24:41;419.08;;;216.60;;
15883;SDS011;8040;50.254;10.960;2023-08-17T04:27:06;420.37;;;209.80;;
15883;SDS011;8040;50.254;10.960;2023-08-17T04:29:31;424.80;;;216.63;;
15883;SDS011;8040;50.254;10.960;2023-08-17T04:31:57;415.10;;;211.87;;
15883;SDS011;8040;50.254;10.960;2023-08-17T04:34:24;416.93;;;215.13;;
15883;SDS011;8040;50.254;10.960;2023-08-17T04:36:49;408.55;;;205.02;;
15883;SDS011;8040;50.254;10.960;2023-08-17T04:39:15;412.10;;;194.30;;
15883;SDS011;8040;50.254;10.960;2023-08-17T04:41:40;425.70;;;215.75;;
15883;SDS011;8040;50.254;10.960;2023-08-17T04:44:06;429.80;;;217.50;;
15883;SDS011;8040;50.254;10.960;2023-08-17T04:46:35;412.83;;;205.33;;
15883;SDS011;8040;50.254;10.960;2023-08-17T04:49:00;431.48;;;218.20;;
15883;SDS011;8040;50.254;10.960;2023-08-17T04:51:26;412.27;;;210.45;;
15883;SDS011;8040;50.254;10.960;2023-08-17T04:53:51;425.65;;;223.40;;
15883;SDS011;8040;50.254;10.960;2023-08-17T04:56:18;427.98;;;219.40;;
15883;SDS011;8040;50.254;10.960;2023-08-17T04:58:43;416.70;;;203.00;;
15883;SDS011;8040;50.254;10.960;2023-08-17T05:01:08;428.80;;;209.98;;
15883;SDS011;8040;50.254;10.960;2023-08-17T05:03:35;420.17;;;216.07;;
15883;SDS011;8040;50.254;10.960;2023-08-17T05:06:00;416.77;;;205.47;;
15883;SDS011;8040;50.254;10.960;2023-08-17T05:08:26;422.30;;;212.30;;
15883;SDS011;8040;50.254;10.960;2023-08-17T05:10:52;420.30;;;211.40;;
15883;SDS011;8040;50.254;10.960;2023-08-17T05:13:17;425.05;;;217.52;;
15883;SDS011;8040;50.254;10.960;2023-08-17T05:15:42;425.03;;;214.40;;
15883;SDS011;8040;50.254;10.960;2023-08-17T05:18:08;427.77;;;217.97;;
15883;SDS011;8040;50.254;10.960;2023-08-17T05:20:33;430.63;;;220.97;;
15883;SDS011;8040;50.254;10.960;2023-08-17T05:22:59;419.55;;;214.30;;
15883;SDS011;8040;50.254;10.960;2023-08-17T05:25:24;431.97;;;218.03;;
15883;SDS011;8040;50.254;10.960;2023-08-17T05:27:51;450.73;;;229.43;;
15883;SDS011;8040;50.254;10.960;2023-08-17T05:30:17;429.50;;;217.53;;
15883;SDS011;8040;50.254;10.960;2023-08-17T05:32:42;433.90;;;215.52;;
15883;SDS011;8040;50.254;10.960;2023-08-17T05:35:08;445.33;;;225.03;;
15883;SDS011;8040;50.254;10.960;2023-08-17T05:37:33;434.60;;;219.93;;
15883;SDS011;8040;50.254;10.960;2023-08-17T05:39:59;434.37;;;218.17;;
15883;SDS011;8040;50.254;10.960;2023-08-17T05:42:24;435.00;;;219.00;;
15883;SDS011;8040;50.254;10.960;2023-08-17T05:44:50;435.13;;;225.53;;
15883;SDS011;8040;50.254;10.960;2023-08-17T05:47:15;433.90;;;228.80;;
15883;SDS011;8040;50.254;10.960;2023-08-17T05:49:42;434.33;;;231.48;;
15883;SDS011;8040;50.254;10.960;2023-08-17T05:54:52;450.15;;;247.40;;
15883;SDS011;8040;50.254;10.960;2023-08-17T05:57:18;450.67;;;248.43;;
15883;SDS011;8040;50.254;10.960;2023-08-17T05:59:43;444.70;;;254.18;;
15883;SDS011;8040;50.254;10.960;2023-08-17T06:02:08;449.03;;;257.40;;
15883;SDS011;8040;50.254;10.960;2023-08-17T06:04:34;451.90;;;267.93;;
15883;SDS011;8040;50.254;10.960;2023-08-17T06:06:59;442.45;;;270.33;;
15883;SDS011;8040;50.254;10.960;2023-08-17T06:09:25;446.43;;;264.70;;
15883;SDS011;8040;50.254;10.960;2023-08-17T06:11:50;458.50;;;276.67;;
15883;SDS011;8040;50.254;10.960;2023-08-17T06:14:16;452.08;;;278.00;;
15883;SDS011;8040;50.254;10.960;2023-08-17T06:16:41;448.70;;;279.27;;
15883;SDS011;8040;50.254;10.960;2023-08-17T06:19:07;463.33;;;295.03;;
15883;SDS011;8040;50.254;10.960;2023-08-17T06:21:32;452.30;;;291.08;;
15883;SDS011;8040;50.254;10.960;2023-08-17T06:23:57;478.27;;;296.17;;
15883;SDS011;8040;50.254;10.960;2023-08-17T06:26:23;467.83;;;278.93;;
15883;SDS011;8040;50.254;10.960;2023-08-17T06:28:48;465.85;;;273.60;;
15883;SDS011;8040;50.254;10.960;2023-08-17T06:31:16;459.67;;;272.87;;
15883;SDS011;8040;50.254;10.960;2023-08-17T06:33:42;473.77;;;286.05;;
15883;SDS011;8040;50.254;10.960;2023-08-17T06:36:08;457.25;;;285.27;;
15883;SDS011;8040;50.254;10.960;2023-08-17T06:38:33;458.10;;;284.70;;
15883;SDS011;8040;50.254;10.960;2023-08-17T06:41:00;469.30;;;304.73;;
15883;SDS011;8040;50.254;10.960;2023-08-17T06:43:33;462.98;;;281.45;;
15883;SDS011;8040;50.254;10.960;2023-08-17T06:45:59;468.80;;;288.57;;
15883;SDS011;8040;50.254;10.960;2023-08-17T06:48:25;460.90;;;282.75;;
15883;SDS011;8040;50.254;10.960;2023-08-17T06:50:51;461.98;;;288.23;;
15883;SDS011;8040;50.254;10.960;2023-08-17T06:53:16;463.30;;;277.60;;
15883;SDS011;8040;50.254;10.960;2023-08-17T06:55:42;465.47;;;280.47;;
15883;SDS011;8040;50.254;10.960;2023-08-17T06:58:07;457.02;;;274.38;;
15883;SDS011;8040;50.254;10.960;2023-08-17T07:00:33;447.20;;;268.70;;
15883;SDS011;8040;50.254;10.960;2023-08-17T07:03:00;446.83;;;278.02;;
15883;SDS011;8040;50.254;10.960;2023-08-17T07:05:26;465.63;;;280.58;;
15883;SDS011;8040;50.254;10.960;2023-08-17T07:07:52;457.97;;;268.60;;
15883;SDS011;8040;50.254;10.960;2023-08-17T07:10:18;456.10;;;273.33;;
15883;SDS011;8040;50.254;10.960;2023-08-17T07:12:44;454.73;;;278.00;;
15883;SDS011;8040;50.254;10.960;2023-08-17T07:15:09;467.77;;;274.80;;
15883;SDS011;8040;50.254;10.960;2023-08-17T07:17:41;461.87;;;279.97;;
15883;SDS011;8040;50.254;10.960;2023-08-17T07:20:07;458.20;;;280.85;;
15883;SDS011;8040;50.254;10.960;2023-08-17T07:22:33;483.50;;;290.77;;
15883;SDS011;8040;50.254;10.960;2023-08-17T07:24:58;466.53;;;280.20;;
15883;SDS011;8040;50.254;10.960;2023-08-17T07:27:24;480.07;;;283.90;;
15883;SDS011;8040;50.254;10.960;2023-08-17T07:29:50;477.23;;;289.98;;
15883;SDS011;8040;50.254;10.960;2023-08-17T07:32:15;469.30;;;289.57;;
15883;SDS011;8040;50.254;10.960;2023-08-17T07:34:41;466.50;;;266.83;;
15883;SDS011;8040;50.254;10.960;2023-08-17T07:37:06;466.40;;;279.80;;
15883;SDS011;8040;50.254;10.960;2023-08-17T07:39:34;461.27;;;269.90;;
15883;SDS011;8040;50.254;10.960;2023-08-17T07:41:59;491.02;;;288.65;;
15883;SDS011;8040;50.254;10.960;2023-08-17T07:44:24;477.95;;;277.58;;
15883;SDS011;8040;50.254;10.960;2023-08-17T07:46:50;476.73;;;288.60;;
15883;SDS011;8040;50.254;10.960;2023-08-17T07:49:15;479.50;;;291.43;;
15883;SDS011;8040;50.254;10.960;2023-08-17T07:51:41;482.55;;;296.20;;
15883;SDS011;8040;50.254;10.960;2023-08-17T07:54:07;489.95;;;312.27;;
15883;SDS011;8040;50.254;10.960;2023-08-17T07:56:32;464.40;;;285.13;;
15883;SDS011;8040;50.254;10.960;2023-08-17T07:58:58;464.40;;;295.47;;
15883;SDS011;8040;50.254;10.960;2023-08-17T08:01:23;459.10;;;296.15;;
15883;SDS011;8040;50.254;10.960;2023-08-17T08:03:49;453.42;;;295.15;;
15883;SDS011;8040;50.254;10.960;2023-08-17T08:06:15;464.55;;;298.88;;
15883;SDS011;8040;50.254;10.960;2023-08-17T08:08:40;482.95;;;294.00;;
15883;SDS011;8040;50.254;10.960;2023-08-17T08:11:06;479.07;;;301.73;;
15883;SDS011;8040;50.254;10.960;2023-08-17T08:13:31;493.13;;;303.87;;
15883;SDS011;8040;50.254;10.960;2023-08-17T08:16:00;467.40;;;290.17;;
15883;SDS011;8040;50.254;10.960;2023-08-17T08:18:26;479.55;;;301.83;;
15883;SDS011;8040;50.254;10.960;2023-08-17T08:20:51;493.17;;;299.23;;
15883;SDS011;8040;50.254;10.960;2023-08-17T08:23:18;482.37;;;303.37;;
15883;SDS011;8040;50.254;10.960;2023-08-17T08:25:44;473.35;;;298.65;;
15883;SDS011;8040;50.254;10.960;2023-08-17T08:28:21;485.20;;;306.23;;
15883;SDS011;8040;50.254;10.960;2023-08-17T08:30:46;466.25;;;296.48;;
15883;SDS011;8040;50.254;10.960;2023-08-17T08:33:15;469.25;;;301.10;;
15883;SDS011;8040;50.254;10.960;2023-08-17T08:35:40;474.52;;;300.50;;
15883;SDS011;8040;50.254;10.960;2023-08-17T08:38:06;476.73;;;302.48;;
15883;SDS011;8040;50.254;10.960;2023-08-17T08:40:31;473.77;;;300.43;;
15883;SDS011;8040;50.254;10.960;2023-08-17T08:42:57;471.00;;;294.00;;
15883;SDS011;8040;50.254;10.960;2023-08-17T08:45:24;480.13;;;298.70;;
15883;SDS011;8040;50.254;10.960;2023-08-17T08:47:53;472.00;;;294.05;;
15883;SDS011;8040;50.254;10.960;2023-08-17T08:50:19;485.80;;;299.83;;
15883;SDS011;8040;50.254;10.960;2023-08-17T08:52:50;479.60;;;301.35;;
15883;SDS011;8040;50.254;10.960;2023-08-17T08:55:23;474.95;;;301.42;;
15883;SDS011;8040;50.254;10.960;2023-08-17T08:57:52;487.98;;;307.90;;
15883;SDS011;8040;50.254;10.960;2023-08-17T09:00:18;480.60;;;301.45;;
15883;SDS011;8040;50.254;10.960;2023-08-17T09:02:44;474.60;;;304.48;;
15883;SDS011;8040;50.254;10.960;2023-08-17T09:05:10;489.02;;;307.48;;
15883;SDS011;8040;50.254;10.960;2023-08-17T09:07:39;481.63;;;302.60;;
15883;SDS011;8040;50.254;10.960;2023-08-17T09:10:08;485.65;;;307.45;;
15883;SDS011;8040;50.254;10.960;2023-08-17T09:12:34;475.55;;;299.92;;
15883;SDS011;8040;50.254;10.960;2023-08-17T09:15:00;480.55;;;306.00;;
15883;SDS011;8040;50.254;10.960;2023-08-17T09:17:26;482.33;;;300.47;;
15883;SDS011;8040;50.254;10.960;2023-08-17T09:19:52;502.92;;;316.20;;
15883;SDS011;8040;50.254;10.960;2023-08-17T09:22:24;477.88;;;303.83;;
15883;SDS011;8040;50.254;10.960;2023-08-17T09:25:06;479.88;;;306.95;;
15883;SDS011;8040;50.254;10.960;2023-08-17T09:27:32;468.25;;;301.83;;
15883;SDS011;8040;50.254;10.960;2023-08-17T09:30:02;529.58;;;328.33;;
15883;SDS011;8040;50.254;10.960;2023-08-17T09:32:31;476.95;;;301.05;;
15883;SDS011;8040;50.254;10.960;2023-08-17T09:34:57;514.50;;;319.50;;
15883;SDS011;8040;50.254;10.960;2023-08-17T09:37:26;517.07;;;322.43;;
15883;SDS011;8040;50.254;10.960;2023-08-17T09:39:52;481.52;;;305.27;;
15883;SDS011;8040;50.254;10.960;2023-08-17T09:42:18;478.67;;;306.98;;
15883;SDS011;8040;50.254;10.960;2023-08-17T09:44:46;515.53;;;319.25;;
15883;SDS011;8040;50.254;10.960;2023-08-17T09:47:12;479.07;;;307.53;;
15883;SDS011;8040;50.254;10.960;2023-08-17T09:49:37;517.50;;;319.75;;
15883;SDS011;8040;50.254;10.960;2023-08-17T09:52:03;480.80;;;310.40;;
15883;SDS011;8040;50.254;10.960;2023-08-17T09:54:30;490.42;;;316.48;;
15883;SDS011;8040;50.254;10.960;2023-08-17T09:56:57;494.20;;;313.45;;
15883;SDS011;8040;50.254;10.960;2023-08-17T09:59:23;500.65;;;322.23;;
15883;SDS011;8040;50.254;10.960;2023-08-17T10:01:49;477.13;;;310.80;;
15883;SDS011;8040;50.254;10.960;2023-08-17T10:04:18;493.02;;;316.92;;
15883;SDS011;8040;50.254;10.960;2023-08-17T10:06:47;493.75;;;311.17;;
15883;SDS011;8040;50.254;10.960;2023-08-17T10:09:15;483.13;;;307.75;;
15883;SDS011;8040;50.254;10.960;2023-08-17T10:11:48;476.88;;;309.90;;
15883;SDS011;8040;50.254;10.960;2023-08-17T10:14:23;480.25;;;310.23;;
15883;SDS011;8040;50.254;10.960;2023-08-17T10:17:01;481.83;;;307.10;;
15883;SDS011;8040;50.254;10.960;2023-08-17T10:22:39;475.70;;;316.48;;
15883;SDS011;8040;50.254;10.960;2023-08-17T10:25:11;477.88;;;316.27;;
15883;SDS011;8040;50.254;10.960;2023-08-17T10:27:39;476.83;;;312.73;;
15883;SDS011;8040;50.254;10.960;2023-08-17T10:30:06;479.95;;;317.33;;
15883;SDS011;8040;50.254;10.960;2023-08-17T10:32:34;489.03;;;318.57;;
15883;SDS011;8040;50.254;10.960;2023-08-17T10:35:00;499.70;;;327.33;;
15883;SDS011;8040;50.254;10.960;2023-08-17T10:37:26;481.45;;;311.52;;
15883;SDS011;8040;50.254;10.960;2023-08-17T10:39:51;504.92;;;325.02;;
15883;SDS011;8040;50.254;10.960;2023-08-17T10:42:33;511.45;;;325.55;;
15883;SDS011;8040;50.254;10.960;2023-08-17T10:45:01;478.47;;;312.13;;
15883;SDS011;8040;50.254;10.960;2023-08-17T10:47:47;488.40;;;323.37;;
15883;SDS011;8040;50.254;10.960;2023-08-17T10:50:22;494.30;;;323.47;;
15883;SDS011;8040;50.254;10.960;2023-08-17T10:52:50;496.63;;;328.23;;
15883;SDS011;8040;50.254;10.960;2023-08-17T10:55:35;486.88;;;320.85;;
15883;SDS011;8040;50.254;10.960;2023-08-17T10:58:02;496.98;;;324.67;;
15883;SDS011;8040;50.254;10.960;2023-08-17T11:00:35;506.20;;;325.48;;
15883;SDS011;8040;50.254;10.960;2023-08-17T11:03:08;494.30;;;325.63;;
15883;SDS011;8040;50.254;10.960;2023-08-17T11:08:19;496.77;;;325.08;;
15883;SDS011;8040;50.254;10.960;2023-08-17T11:11:04;496.38;;;331.00;;
15883;SDS011;8040;50.254;10.960;2023-08-17T11:13:32;506.73;;;327.48;;
15883;SDS011;8040;50.254;10.960;2023-08-17T11:16:01;494.58;;;321.02;;
15883;SDS011;8040;50.254;10.960;2023-08-17T11:18:28;482.80;;;315.25;;
15883;SDS011;8040;50.254;10.960;2023-08-17T11:20:54;498.33;;;324.23;;
15883;SDS011;8040;50.254;10.960;2023-08-17T11:23:20;491.65;;;324.92;;
15883;SDS011;8040;50.254;10.960;2023-08-17T11:25:46;493.23;;;321.67;;
15883;SDS011;8040;50.254;10.960;2023-08-17T11:28:11;486.80;;;324.27;;
15883;SDS011;8040;50.254;10.960;2023-08-17T11:30:39;494.60;;;323.60;;
15883;SDS011;8040;50.254;10.960;2023-08-17T11:33:06;500.08;;;328.52;;
15883;SDS011;8040;50.254;10.960;2023-08-17T11:35:32;508.52;;;332.83;;
15883;SDS011;8040;50.254;10.960;2023-08-17T11:37:59;494.13;;;327.08;;
15883;SDS011;8040;50.254;10.960;2023-08-17T11:40:25;487.20;;;320.45;;
15883;SDS011;8040;50.254;10.960;2023-08-17T11:42:51;506.52;;;333.63;;
15883;SDS011;8040;50.254;10.960;2023-08-17T11:45:18;548.33;;;342.77;;
15883;SDS011;8040;50.254;10.960;2023-08-17T11:47:44;499.50;;;327.83;;
15883;SDS011;8040;50.254;10.960;2023-08-17T11:50:10;485.75;;;327.75;;
15883;SDS011;8040;50.254;10.960;2023-08-17T11:52:37;462.00;;;321.10;;
15883;SDS011;8040;50.254;10.960;2023-08-17T11:55:04;468.95;;;316.30;;
15883;SDS011;8040;50.254;10.960;2023-08-17T11:57:34;481.80;;;323.92;;
15883;SDS011;8040;50.254;10.960;2023-08-17T12:02:48;514.80;;;348.05;;
15883;SDS011;8040;50.254;10.960;2023-08-17T12:05:20;511.97;;;336.47;;
15883;SDS011;8040;50.254;10.960;2023-08-17T12:07:55;527.05;;;343.85;;
15883;SDS011;8040;50.254;10.960;2023-08-17T12:10:21;514.95;;;331.17;;
15883;SDS011;8040;50.254;10.960;2023-08-17T12:12:49;505.08;;;332.88;;
15883;SDS011;8040;50.254;10.960;2023-08-17T12:15:16;516.88;;;344.88;;
15883;SDS011;8040;50.254;10.960;2023-08-17T12:17:48;505.58;;;337.48;;
15883;SDS011;8040;50.254;10.960;2023-08-17T12:20:16;541.72;;;386.45;;
15883;SDS011;8040;50.254;10.960;2023-08-17T12:22:42;518.67;;;343.45;;
15883;SDS011;8040;50.254;10.960;2023-08-17T12:25:09;501.55;;;338.35;;
15883;SDS011;8040;50.254;10.960;2023-08-17T12:27:34;496.73;;;353.83;;
15883;SDS011;8040;50.254;10.960;2023-08-17T12:30:01;501.85;;;341.83;;
15883;SDS011;8040;50.254;10.960;2023-08-17T12:32:26;486.50;;;341.37;;
15883;SDS011;8040;50.254;10.960;2023-08-17T12:34:52;500.70;;;344.90;;
15883;SDS011;8040;50.254;10.960;2023-08-17T12:37:18;537.35;;;406.65;;
15883;SDS011;8040;50.254;10.960;2023-08-17T12:39:45;505.30;;;351.77;;
15883;SDS011;8040;50.254;10.960;2023-08-17T12:42:18;493.15;;;345.33;;
15883;SDS011;8040;50.254;10.960;2023-08-17T12:44:43;497.70;;;347.40;;
15883;SDS011;8040;50.254;10.960;2023-08-17T12:47:09;507.38;;;369.58;;
15883;SDS011;8040;50.254;10.960;2023-08-17T12:49:35;518.70;;;378.83;;
15883;SDS011;8040;50.254;10.960;2023-08-17T12:52:01;506.73;;;354.98;;
15883;SDS011;8040;50.254;10.960;2023-08-17T12:54:26;498.88;;;344.05;;
15883;SDS011;8040;50.254;10.960;2023-08-17T12:56:52;493.43;;;346.40;;
15883;SDS011;8040;50.254;10.960;2023-08-17T12:59:17;497.23;;;344.17;;
15883;SDS011;8040;50.254;10.960;2023-08-17T13:01:42;499.97;;;344.10;;
15883;SDS011;8040;50.254;10.960;2023-08-17T13:04:08;505.23;;;350.67;;
15883;SDS011;8040;50.254;10.960;2023-08-17T13:06:33;504.35;;;350.75;;
15883;SDS011;8040;50.254;10.960;2023-08-17T13:08:59;498.67;;;346.67;;
15883;SDS011;8040;50.254;10.960;2023-08-17T13:11:24;506.60;;;350.87;;
15883;SDS011;8040;50.254;10.960;2023-08-17T13:13:50;494.37;;;344.50;;
15883;SDS011;8040;50.254;10.960;2023-08-17T13:16:15;525.30;;;356.47;;
15883;SDS011;8040;50.254;10.960;2023-08-17T13:18:43;513.78;;;352.17;;
15883;SDS011;8040;50.254;10.960;2023-08-17T13:21:08;503.87;;;340.57;;
15883;SDS011;8040;50.254;10.960;2023-08-17T13:23:34;496.77;;;340.07;;
15883;SDS011;8040;50.254;10.960;2023-08-17T13:25:59;514.72;;;344.55;;
15883;SDS011;8040;50.254;10.960;2023-08-17T13:28:25;507.80;;;342.53;;
15883;SDS011;8040;50.254;10.960;2023-08-17T13:30:50;489.60;;;373.53;;
15883;SDS011;8040;50.254;10.960;2023-08-17T13:33:15;510.13;;;342.23;;
15883;SDS011;8040;50.254;10.960;2023-08-17T13:35:42;504.08;;;338.48;;
15883;SDS011;8040;50.254;10.960;2023-08-17T13:38:07;497.43;;;335.47;;
15883;SDS011;8040;50.254;10.960;2023-08-17T13:40:33;491.33;;;339.57;;
15883;SDS011;8040;50.254;10.960;2023-08-17T13:42:59;491.92;;;337.45;;
15883;SDS011;8040;50.254;10.960;2023-08-17T13:45:25;516.20;;;346.92;;
15883;SDS011;8040;50.254;10.960;2023-08-17T13:47:51;498.92;;;337.83;;
15883;SDS011;8040;50.254;10.960;2023-08-17T13:50:17;508.92;;;341.17;;
15883;SDS011;8040;50.254;10.960;2023-08-17T13:52:43;516.83;;;340.75;;
15883;SDS011;8040;50.254;10.960;2023-08-17T13:55:09;493.90;;;331.48;;
15883;SDS011;8040;50.254;10.960;2023-08-17T13:57:35;489.17;;;329.90;;
15883;SDS011;8040;50.254;10.960;2023-08-17T14:00:00;503.20;;;343.65;;
15883;SDS011;8040;50.254;10.960;2023-08-17T14:02:25;499.67;;;329.63;;
15883;SDS011;8040;50.254;10.960;2023-08-17T14:04:51;487.25;;;333.42;;
15883;SDS011;8040;50.254;10.960;2023-08-17T14:07:16;501.33;;;339.20;;
15883;SDS011;8040;50.254;10.960;2023-08-17T14:09:43;490.25;;;340.50;;
15883;SDS011;8040;50.254;10.960;2023-08-17T14:12:08;494.63;;;334.67;;
15883;SDS011;8040;50.254;10.960;2023-08-17T14:14:34;508.97;;;345.53;;